METAR Analyzer

一覧表示

Hello, Guest. (Login)

KJFK/JFK  -  ジョン・F・ケネディ

観測日時
2021-01-27 16:51 (UTC) (46分前)
気温
3.3
露点
-3.3
湿数
6.6
相対湿度
61.9%
QNH
1016.6hPa
推定現地気圧
1016.1hPa
推定海面気圧
1016.6hPa
体感温度
-10.5
(無風時)
7.6
HI
1.3
気温前日比
+1.6
体感温度前日比
+0.2
HI前日比
+1.9
水平視程
>10SM
鉛直視程
データなし
雲底高度
3800ft AGL
V/I
VMC (VFR)
RVR
No RVR data
卓越風
15kt from 330°
ガスト
No gust
降水
報告なし
その他の天気
報告なし
隙間のある雲 @ 3800ft AGL

KJFK 271651Z 33015KT 10SM BKN038 03/M03 A3002 RMK AO2 SLP165 T00331033

KLGA/LGA  -  ラガーディア

観測日時
2021-01-27 16:51 (UTC) (46分前)
気温
3.3
露点
-3.9
湿数
7.2
相対湿度
59.2%
QNH
1016.3hPa
推定現地気圧
1015.6hPa
推定海面気圧
1016.4hPa
体感温度
-11.1
(無風時)
7.7
HI
1.2
気温前日比
+1.6
体感温度前日比
-0.1
HI前日比
+1.8
水平視程
>10SM
鉛直視程
データなし
雲底高度
4200ft AGL
V/I
VMC (VFR)
RVR
No RVR data
卓越風
18kt from 310°
ガスト
23kt
降水
報告なし
その他の天気
報告なし
少しの雲 @ 3200ft AGL / 全天を覆う雲 @ 4200ft AGL

KLGA 271651Z 31018G23KT 10SM FEW032 OVC042 03/M04 A3001 RMK AO2 SLP163 T00331039

KEWR/EWR  -  ニューアーク・リバティー

観測日時
2021-01-27 16:51 (UTC) (46分前)
気温
2.8
露点
-4.4
湿数
7.2
相対湿度
59%
QNH
1016.9hPa
推定現地気圧
1016.3hPa
推定海面気圧
1016.9hPa
体感温度
-11.2
(無風時)
7.3
HI
0.7
気温前日比
+1.7
体感温度前日比
-2.4
HI前日比
+1.7
水平視程
>10SM
鉛直視程
データなし
雲底高度
4200ft AGL
V/I
VMC (VFR)
RVR
No RVR data
卓越風
16kt from 310°
ガスト
23kt
降水
報告なし
その他の天気
報告なし
少しの雲 @ 3200ft AGL / 隙間のある雲 @ 4200ft AGL / 隙間のある雲 @ 7500ft AGL

KEWR 271651Z 31016G23KT 10SM FEW032 BKN042 BKN075 03/M04 A3003 RMK AO2 SLP168 T00281044

KIAD/IAD  -  ワシントン・ダレス

観測日時
2021-01-27 16:52 (UTC) (45分前)
気温
6.1
露点
-2.8
湿数
8.9
相対湿度
52.8%
QNH
1019.6hPa
推定現地気圧
1008.2hPa
推定海面気圧
1020.0hPa
体感温度
-6
(無風時)
9.9
HI
4.1
気温前日比
+5.5
体感温度前日比
-10.3
HI前日比
+4.9
水平視程
>10SM
鉛直視程
データなし
雲底高度
4500ft AGL
V/I
VMC (VFR)
RVR
No RVR data
卓越風
14kt from 340°
ガスト
No gust
降水
報告なし
その他の天気
報告なし
散在する雲 @ 3800ft AGL / 隙間のある雲 @ 4500ft AGL / 隙間のある雲 @ 11000ft AGL

KIAD 271652Z 34014KT 10SM SCT038 BKN045 BKN110 06/M03 A3011 RMK AO2 PRESFR SLP199 T00611028

KDET/DET  -  コールマン・A・ヤング

観測日時
2021-01-27 16:53 (UTC) (44分前)
気温
-3.9
露点
-10
湿数
6.1
相対湿度
62.5%
QNH
1026.1hPa
推定現地気圧
1003.1hPa
推定海面気圧
1027.6hPa
体感温度
-16.8
(無風時)
2.2
HI
-6.6
気温前日比
-3.9
体感温度前日比
-3
HI前日比
-4.9
水平視程
>10SM
鉛直視程
データなし
雲底高度
No dense clouds
V/I
VMC (VFR)
RVR
No RVR data
卓越風
9kt from 10°
ガスト
No gust
降水
報告なし
その他の天気
報告なし
目立った雲なし

KDET 271653Z 01009KT 10SM CLR M04/M10 A3030 RMK AO2 SLP268 T10391100

KMCO/MCO  -  オーランド

観測日時
2021-01-27 16:53 (UTC) (44分前)
気温
24.4
露点
18.9
湿数
5.5
相対湿度
71.4%
QNH
1018.6hPa
推定現地気圧
1015.1hPa
推定海面気圧
1018.5hPa
体感温度
18
(無風時)
24
HI
24.8
気温前日比
+2.2
体感温度前日比
+1.5
HI前日比
+2.2
水平視程
>10SM
鉛直視程
データなし
雲底高度
25000ft AGL
V/I
VMC (VFR)
RVR
No RVR data
卓越風
9kt from 230°
ガスト
No gust
降水
報告なし
その他の天気
報告なし
少しの雲 @ 2300ft AGL / 隙間のある雲 @ 25000ft AGL

KMCO 271653Z 23009KT 10SM FEW023 BKN250 24/19 A3008 RMK AO2 SLP183 T02440189

KMIA/MIA  -  マイアミ

観測日時
2021-01-27 16:53 (UTC) (44分前)
気温
27.8
露点
18.9
湿数
8.9
相対湿度
58.4%
QNH
1019.0hPa
推定現地気圧
1018.6hPa
推定海面気圧
1018.9hPa
体感温度
21.5
(無風時)
25.8
HI
29
気温前日比
+1.1
体感温度前日比
+1.2
HI前日比
+1.1
水平視程
>10SM
鉛直視程
データなし
雲底高度
No dense clouds
V/I
VMC (VFR)
RVR
No RVR data
卓越風
9kt from 240°
ガスト
No gust
降水
報告なし
その他の天気
報告なし
少しの雲 @ 3500ft AGL / 散在する雲 @ 4500ft AGL

KMIA 271653Z 24009KT 10SM FEW035 SCT045 28/19 A3009 RMK AO2 SLP189 T02780189 $

KFLL/FLL  -  フォートローダーデール・ハリウッド

観測日時
2021-01-27 16:53 (UTC) (44分前)
気温
28.3
露点
18.9
湿数
9.4
相対湿度
56.8%
QNH
1018.6hPa
推定現地気圧
1016.2hPa
推定海面気圧
1018.5hPa
体感温度
21.8
(無風時)
26
HI
29.5
気温前日比
+1.1
体感温度前日比
+0.8
HI前日比
+1
水平視程
>10SM
鉛直視程
データなし
雲底高度
No dense clouds
V/I
VMC (VFR)
RVR
No RVR data
卓越風
11kt from 220°
ガスト
No gust
降水
報告なし
その他の天気
報告なし
散在する雲 @ 3800ft AGL

KFLL 271653Z 22011KT 10SM SCT038 28/19 A3008 RMK AO2 SLP184 T02830189

KTPA/TPA  -  タンパ

観測日時
2021-01-27 16:53 (UTC) (44分前)
気温
21.7
露点
19.4
湿数
2.3
相対湿度
86.8%
QNH
1019.6hPa
推定現地気圧
1018.6hPa
推定海面気圧
1019.5hPa
体感温度
17
(無風時)
22.6
HI
22.2
気温前日比
+0.6
体感温度前日比
+2.1
HI前日比
+0.6
水平視程
>10SM
鉛直視程
データなし
雲底高度
1000ft AGL
V/I
VMC (VFR)
RVR
No RVR data
卓越風
4kt from 170°
ガスト
No gust
降水
報告なし
その他の天気
報告なし
隙間のある雲 @ 1000ft AGL

KTPA 271653Z 17004KT 10SM BKN010 22/19 A3011 RMK AO2 CIG 008V012 SLP195 T02170194

KMSP/MSP  -  ミネアポリス・セントポール

観測日時
2021-01-27 16:53 (UTC) (44分前)
気温
-11.7
露点
-17.8
湿数
6.1
相対湿度
60.5%
QNH
1033.9hPa
推定現地気圧
1002.9hPa
推定海面気圧
1037.0hPa
体感温度
-23
(無風時)
-3.5
HI
-15.2
気温前日比
-2.8
体感温度前日比
+0.1
HI前日比
-3.3
水平視程
>10SM
鉛直視程
データなし
雲底高度
8000ft AGL
V/I
VMC (VFR)
RVR
No RVR data
卓越風
6kt from 10°
ガスト
No gust
降水
報告なし
その他の天気
報告なし
全天を覆う雲 @ 8000ft AGL

KMSP 271653Z 01006KT 10SM OVC080 M12/M18 A3053 RMK AO2 SLP358 T11171178

KAUS/AUS  -  オースティン・バーグストロム

観測日時
2021-01-27 16:53 (UTC) (44分前)
気温
15.6
露点
2.2
湿数
13.4
相対湿度
40.4%
QNH
1026.1hPa
推定現地気圧
1006.2hPa
推定海面気圧
1026.0hPa
体感温度
6.5
(無風時)
16.3
HI
14.3
気温前日比
-2.2
体感温度前日比
-3.3
HI前日比
-2.4
水平視程
>10SM
鉛直視程
データなし
雲底高度
30000ft AGL
V/I
VMC (VFR)
RVR
No RVR data
卓越風
11kt from 330°
ガスト
No gust
降水
報告なし
その他の天気
報告なし
隙間のある雲 @ 30000ft AGL

KAUS 271653Z 33011KT 10SM BKN300 16/02 A3030 RMK AO2 SLP260 T01560022

KPHX/PHX  -  フェニックス・スカイハーバー

観測日時
2021-01-27 16:51 (UTC) (46分前)
気温
8.9
露点
-1.1
湿数
10
相対湿度
49.4%
QNH
1025.4hPa
推定現地気圧
984.1hPa
推定海面気圧
1026.0hPa
体感温度
-1.1
(無風時)
11.9
HI
7.1
気温前日比
+1.7
体感温度前日比
-1.3
HI前日比
+1.3
水平視程
>10SM
鉛直視程
データなし
雲底高度
No dense clouds
V/I
VMC (VFR)
RVR
No RVR data
卓越風
10kt from 80°
ガスト
No gust
降水
報告なし
その他の天気
報告なし
少しの雲 @ 15000ft AGL / 少しの雲 @ 25000ft AGL

KPHX 271651Z 08010KT 10SM FEW150 FEW250 09/M01 A3028 RMK AO2 SLP250 T00891011 $

KTUS/TUS  -  ツーソン

観測日時
2021-01-27 16:53 (UTC) (44分前)
気温
7.8
露点
-3.3
湿数
11.1
相対湿度
45.3%
QNH
1024.4hPa
推定現地気圧
930.4hPa
推定海面気圧
1025.2hPa
体感温度
-3.8
(無風時)
11.1
HI
5.8
気温前日比
+6.8
体感温度前日比
+5.8
HI前日比
+6
水平視程
>10SM
鉛直視程
データなし
雲底高度
No dense clouds
V/I
VMC (VFR)
RVR
No RVR data
卓越風
15kt from 110°
ガスト
26kt
降水
報告なし
その他の天気
報告なし
目立った雲なし

KTUS 271653Z 11015G26KT 10SM CLR 08/M03 A3025 RMK AO2 PK WND 13027/1604 SLP236 T00781033

KSFO/SFO  -  サンフランシスコ

観測日時
2021-01-27 16:56 (UTC) (41分前)
気温
11.7
露点
6.7
湿数
5
相対湿度
71.4%
QNH
1009.1hPa
推定現地気圧
1008.6hPa
推定海面気圧
1009.1hPa
体感温度
1.5
(無風時)
14
HI
10.8
気温前日比
+3.4
体感温度前日比
±0
HI前日比
+3.9
水平視程
9SM
鉛直視程
データなし
雲底高度
10000ft AGL
V/I
VMC (VFR)
RVR
No RVR data
卓越風
10kt from 170°
ガスト
No gust
降水
報告なし
その他の天気
報告なし
少しの雲 @ 3000ft AGL / 散在する雲 @ 3800ft AGL / 隙間のある雲 @ 10000ft AGL

KSFO 271656Z 17010KT 9SM FEW030 SCT038 BKN100 12/07 A2980 RMK AO2 SLP091 T01170067

KLAX/LAX  -  ロサンゼルス

観測日時
2021-01-27 16:53 (UTC) (44分前)
気温
11.1
露点
1.1
湿数
10
相対湿度
50.1%
QNH
1022.4hPa
推定現地気圧
1017.7hPa
推定海面気圧
1022.5hPa
体感温度
0.8
(無風時)
13.4
HI
9.6
気温前日比
+1.1
体感温度前日比
-11.8
HI前日比
+1.6
水平視程
>10SM
鉛直視程
データなし
雲底高度
3000ft AGL
V/I
VMC (VFR)
RVR
No RVR data
卓越風
12kt from 110°
ガスト
No gust
降水
報告なし
その他の天気
報告なし
少しの雲 @ 2200ft AGL / 隙間のある雲 @ 3000ft AGL / 隙間のある雲 @ 10000ft AGL

KLAX 271653Z 11012KT 10SM FEW022 BKN030 BKN100 11/01 A3019 RMK AO2 SLP224 T01110011

KSJC/SJC  -  サンノゼ

観測日時
2021-01-27 16:53 (UTC) (44分前)
気温
10
露点
7.2
湿数
2.8
相対湿度
82.7%
QNH
1009.8hPa
推定現地気圧
1007.5hPa
推定海面気圧
1009.8hPa
体感温度
-1.6
(無風時)
12.7
HI
9.2
気温前日比
+5
体感温度前日比
+3.8
HI前日比
+5.7
水平視程
>10SM
鉛直視程
データなし
雲底高度
10000ft AGL
V/I
VMC (VFR)
RVR
No RVR data
卓越風
11kt from 130°
ガスト
No gust
降水
報告なし
その他の天気
報告なし
少しの雲 @ 1700ft AGL / 散在する雲 @ 4500ft AGL / 隙間のある雲 @ 10000ft AGL

KSJC 271653Z 13011KT 10SM FEW017 SCT045 BKN100 10/07 A2982 RMK AO2 RAB06E16 SLP098 P0000 T01000072

株式会社マネーパートナーズ 【Manepa Card】
27.8msec